Flight Track Log - Related Links

Times and Time Zones

All times are in EDT time to prevent confusion due to time zone crossing. See the DAL268 flight status page for this flight to view local times or setup timezone preferences in your user account.

Time Position Orientation Groundspeed Altitude Reporting Facility
EDT Latitude Longitude Course Direction KTS MPH feet Rate Location/Type
Thu 02:36:57 PM 37.6246 -122.3690 28° Northeast 173 199  Level FlightAware ADS-B
Thu 02:37:07 PM 37.6316 -122.3640 29° Northeast 175 201 500 2,857 Climbing FlightAware ADS-B
Thu 02:37:18 PM 37.6391 -122.3580 32° Northeast 178 205 1,000 3,200 Climbing FlightAware ADS-B
Thu 02:37:22 PM 37.6413 -122.3550 47° Northeast 177 204 1,300 3,000 Climbing FlightAware ADS-B
Thu 02:37:26 PM 37.6432 -122.3520 51° Northeast 178 205 1,400 1,895 Climbing FlightAware ADS-B
Thu 02:37:41 PM 37.6518 -122.3390 50° Northeast 188 216 1,900 1,909 Climbing FlightAware ADS-B
Thu 02:37:48 PM 37.6557 -122.3330 51° Northeast 202 232 2,100 1,636 Climbing FlightAware ADS-B
Thu 02:38:03 PM 37.6662 -122.3180 49° Northeast 224 258 2,500 1,742 Climbing FlightAware ADS-B
Thu 02:38:19 PM 37.6772 -122.3020 49° Northeast 240 276 3,000 2,069 Climbing FlightAware ADS-B
Thu 02:38:32 PM 37.6872 -122.2880 48° Northeast 251 289 3,500 2,200 Climbing FlightAware ADS-B
Thu 02:38:49 PM 37.7007 -122.2690 48° Northeast 261 300 4,100 2,545 Climbing FlightAware ADS-B
Thu 02:39:05 PM 37.7139 -122.2510 47° Northeast 273 314 4,900 3,143 Climbing FlightAware ADS-B
Thu 02:39:31 PM 37.7367 -122.2180 49° Northeast 273 314 6,300 3,086 Climbing FlightAware ADS-B
Thu 02:39:40 PM 37.7437 -122.2070 51° Northeast 280 322 6,700 3,000 Climbing FlightAware ADS-B
Thu 02:39:55 PM 37.7543 -122.1860 57° Northeast 282 325 7,500 3,000 Climbing FlightAware ADS-B
Thu 02:40:04 PM 37.7593 -122.1730 64° Northeast 286 329 7,900 2,700 Climbing FlightAware ADS-B
Thu 02:40:15 PM 37.7645 -122.1560 69° East 289 333 8,400 2,667 Climbing FlightAware ADS-B
Thu 02:40:31 PM 37.7716 -122.1300 71° East 299 344 9,100 2,438 Climbing FlightAware ADS-B
Thu 02:40:47 PM 37.7795 -122.1030 70° East 306 352 9,700 1,957 Climbing FlightAware ADS-B
Thu 02:41:17 PM 37.7940 -122.0490 71° East 332 382 10,600 1,600 Climbing FlightAware ADS-B
Thu 02:41:47 PM 37.8098 -121.9910 71° East 364 419 11,300 1,909 Climbing FlightAware ADS-B
Thu 02:42:23 PM 37.8304 -121.9170 71° East 375 432 12,700 2,301 Climbing FlightAware ADS-B
Thu 02:43:00 PM 37.8514 -121.8390 71° East 391 450 14,100 2,328 Climbing FlightAware ADS-B
Thu 02:43:30 PM 37.8691 -121.7730 71° East 399 459 15,300 2,361 Climbing FlightAware ADS-B
Thu 02:44:01 PM 37.8878 -121.7040 71° East 406 467 16,500 2,226 Climbing FlightAware ADS-B
Thu 02:44:32 PM 37.9067 -121.6340 71° East 413 475 17,600 2,190 Climbing FlightAware ADS-B
Thu 02:45:04 PM 37.9258 -121.5600 72° East 418 481 18,800 2,080 Climbing FlightAware ADS-B
Thu 02:45:47 PM 37.9484 -121.4560 75° East 428 493 20,200 1,923 Climbing FlightAware ADS-B
Thu 02:46:22 PM 37.9650 -121.3710 76° East 435 501 21,300 1,905 Climbing FlightAware ADS-B
Thu 02:46:50 PM 37.9790 -121.3020 76° East 440 506 22,200 1,800 Climbing FlightAware ADS-B
Thu 02:47:22 PM 37.9940 -121.2230 76° East 445 512 23,100 1,653 Climbing FlightAware ADS-B
Thu 02:48:28 PM 38.0260 -121.0540 76° East 457 526 24,900 1,550 Climbing FlightAware ADS-B
Thu 02:49:22 PM 38.0530 -120.9090 77° East 467 537 26,200 1,320 Climbing FlightAware ADS-B
Thu 02:50:08 PM 38.0750 -120.7910 77° East 474 545 27,100 1,186 Climbing FlightAware ADS-B
Thu 02:50:48 PM 38.0950 -120.6830 77° East 480 552 27,900 1,297 Climbing FlightAware ADS-B
Thu 02:51:22 PM 38.1120 -120.5910 77° East 482 555 28,700 1,615 Climbing FlightAware ADS-B
Thu 02:52:06 PM 38.1340 -120.4690 77° East 477 549 30,000 1,646 Climbing FlightAware ADS-B
Thu 02:53:15 PM 38.1680 -120.2830 77° East 471 542 31,800 1,514 Climbing FlightAware ADS-B
Thu 02:53:53 PM 38.1836 -120.1990 77° East 470 541 32,700 1,397 Climbing FlightAware ADS-B
Thu 02:54:28 PM 38.2050 -120.0800 77° East 465 535 33,500 1,239 Climbing FlightAware ADS-B
Thu 02:55:25 PM 38.2310 -119.9330 77° East 464 534 34,600 968 Climbing FlightAware ADS-B
Thu 02:56:01 PM 38.2490 -119.8370 77° East 466 536 35,000 414 Climbing FlightAware ADS-B
Thu 02:56:23 PM 38.2595 -119.7748 78° East 466 536 35,000  Level FlightAware ADS-B
Thu 02:57:20 PM 38.2850 -119.6280 77° East 465 535 35,000  Level FlightAware ADS-B
Thu 02:57:52 PM 38.3010 -119.5380 77° East 466 536 35,000  Level FlightAware ADS-B
Thu 02:58:01 PM 38.3055 -119.5128 77° East 467 537 35,000  Level FlightAware ADS-B
Thu 02:58:56 PM 38.3305 -119.3692 77° East 466 536 35,000  Level FlightAware ADS-B
Thu 02:59:35 PM 38.3484 -119.2657 78° East 466 536 35,000  Level FlightAware ADS-B
Thu 03:00:06 PM 38.3633 -119.1792 78° East 465 535 35,000  Level FlightAware ADS-B
Thu 03:00:43 PM 38.3799 -119.0820 78° East 465 535 35,000  Level FlightAware ADS-B
Thu 03:01:13 PM 38.3934 -119.0019 78° East 464 534 35,000  Level FlightAware ADS-B
Thu 03:01:53 PM 38.4115 -118.8952 78° East 462 532 35,000  Level FlightAware ADS-B
Thu 03:03:21 PM 38.4510 -118.6600 78° East 462 532 35,000  Level FlightAware ADS-B
Thu 03:03:47 PM 38.4610 -118.5970 79° East 460 529 35,000  Level FlightAware ADS-B
Thu 03:04:37 PM 38.4840 -118.4620 78° East 460 529 35,000  Level FlightAware ADS-B
Thu 03:05:10 PM 38.4980 -118.3730 79° East 459 528 35,000  Level FlightAware ADS-B
Thu 03:05:51 PM 38.5160 -118.2640 78° East 458 527 35,000  Level FlightAware ADS-B
Thu 03:06:30 PM 38.5330 -118.1590 78° East 458 527 35,000  Level FlightAware ADS-B
Thu 03:07:08 PM 38.5490 -118.0590 78° East 458 527 35,000  Level FlightAware ADS-B
Thu 03:08:02 PM 38.5700 -117.9360 78° East 458 527 35,000  Level FlightAware ADS-B
Thu 03:09:05 PM 38.5930 -117.7940 78° East 458 527 35,000  Level FlightAware ADS-B
Thu 03:09:39 PM 38.6060 -117.7170 78° East 458 527 35,000  Level FlightAware ADS-B
Thu 03:10:28 PM 38.6240 -117.6070 78° East 458 527 35,000  Level FlightAware ADS-B
Thu 03:11:04 PM 38.6380 -117.5260 77° East 458 527 35,000  Level FlightAware ADS-B
Thu 03:11:28 PM 38.6470 -117.4710 78° East 458 527 35,000  Level FlightAware ADS-B
Thu 03:12:14 PM 38.6640 -117.3680 78° East 458 527 35,000  Level FlightAware ADS-B
Thu 03:13:36 PM 38.6950 -117.1830 78° East 458 527 35,000  Level FlightAware ADS-B
Thu 03:14:12 PM 38.7080 -117.1010 78° East 458 527 35,000  Level FlightAware ADS-B
Thu 03:14:48 PM 38.7220 -117.0200 77° East 458 527 35,000  Level FlightAware ADS-B
Thu 03:15:36 PM 38.7400 -116.9120 78° East 458 527 35,000  Level FlightAware ADS-B
Thu 03:16:00 PM 38.7490 -116.8570 78° East 458 527 35,000  Level FlightAware ADS-B
Thu 03:16:36 PM 38.7620 -116.7760 78° East 458 527 35,000  Level FlightAware ADS-B
Thu 03:17:12 PM 38.7750 -116.6950 78° East 458 527 35,000 1,132 Level FlightAware ADS-B
Thu 03:18:22 PM 38.8158 -116.3075 78° East 451 519 37,000 1,008 Climbing Salt Lake Center
Thu 03:19:11 PM 38.8336 -116.1819 80° East 448 516 37,000  Level Oakland Center
Thu 03:20:25 PM 38.8661 -115.9642 79° East 445 512 37,000  Level Salt Lake Center
Thu 03:21:27 PM 38.8878 -115.8053 80° East 450 518 37,000  Level Salt Lake Center
Thu 03:22:29 PM 38.9094 -115.6478 80° East 448 516 37,000  Level Salt Lake Center
Thu 03:23:31 PM 38.9322 -115.4881 80° East 453 521 37,000  Level Salt Lake Center
Thu 03:24:33 PM 38.9544 -115.3242 80° East 453 521 37,000  Level Salt Lake Center
Thu 03:25:35 PM 38.9769 -115.1625 80° East 458 527 37,000  Level Salt Lake Center
Thu 03:26:37 PM 38.9989 -115.0042 80° East 453 521 37,000  Level Salt Lake Center
Thu 03:27:39 PM 39.0231 -114.8131 81° East 453 521 37,000  Level Salt Lake Center
Thu 03:33:27 PM 39.1408 -113.8889 81° East 453 521 37,000  Level FlightAware ADS-B
Thu 03:34:12 PM 39.1548 -113.7747 81° East 452 520 37,000  Level FlightAware ADS-B
Thu 03:34:42 PM 39.1650 -113.6920 81° East 452 520 37,000  Level FlightAware ADS-B
Thu 03:35:12 PM 39.1749 -113.6086 81° East 453 521 37,000  Level FlightAware ADS-B
Thu 03:35:47 PM 39.1857 -113.5182 81° East 453 521 37,000  Level FlightAware ADS-B
Thu 03:36:28 PM 39.1988 -113.4088 81° East 453 521 37,000  Level FlightAware ADS-B
Thu 03:37:20 PM 39.2152 -113.2688 81° East 455 524 37,000  Level FlightAware ADS-B
Thu 03:37:51 PM 39.2243 -113.1917 81° East 456 525 37,000  Level FlightAware ADS-B
Thu 03:38:43 PM 39.2408 -113.0492 81° East 457 526 37,000  Level FlightAware ADS-B
Thu 03:39:14 PM 39.2509 -112.9620 81° East 457 526 37,000  Level FlightAware ADS-B
Thu 03:39:26 PM 39.2546 -112.9295 82° East 458 527 37,000  Level FlightAware ADS-B
Thu 03:39:47 PM 39.2609 -112.8740 82° East 458 527 37,000  Level FlightAware ADS-B
Thu 03:40:21 PM 39.2714 -112.7810 82° East 458 527 37,000  Level FlightAware ADS-B
Thu 03:40:34 PM 39.2753 -112.7466 82° East 458 527 37,000  Level FlightAware ADS-B
Thu 03:41:03 PM 39.2839 -112.6700 82° East 458 527 37,000  Level FlightAware ADS-B
Thu 03:41:05 PM 39.2845 -112.6644 82° East 458 527 37,000  Level FlightAware ADS-B
Thu 03:41:38 PM 39.2944 -112.5760 82° East 458 527 37,000  Level FlightAware ADS-B
Thu 03:41:45 PM 39.2969 -112.5557 81° East 458 527 37,000  Level FlightAware ADS-B
Thu 03:41:48 PM 39.2982 -112.5470 79° East 459 528 37,000  Level FlightAware ADS-B
Thu 03:42:06 PM 39.3079 -112.4990 75° East 460 529 37,000  Level FlightAware ADS-B
Thu 03:42:14 PM 39.3109 -112.4875 71° East 462 532 37,000  Level FlightAware ADS-B
Thu 03:42:27 PM 39.3239 -112.4460 68° East 461 531 37,000  Level FlightAware ADS-B
Thu 03:42:52 PM 39.3460 -112.3850 65° Northeast 463 533 37,000  Level FlightAware ADS-B
Thu 03:42:55 PM 39.3473 -112.3808 68° East 462 532 37,000  Level FlightAware ADS-B
Thu 03:43:33 PM 39.3838 -112.2830 64° Northeast 462 532 37,000  Level FlightAware ADS-B
Thu 03:43:34 PM 39.3829 -112.2856 246° West 462 532 37,000  Level FlightAware ADS-B
Thu 03:44:04 PM 39.4129 -112.2050 64° Northeast 461 531 37,000  Level FlightAware ADS-B
Thu 03:44:35 PM 39.4411 -112.1290 64° Northeast 461 531 37,000  Level FlightAware ADS-B
Thu 03:44:37 PM 39.4415 -112.1276 71° East 460 529 37,000  Level FlightAware ADS-B
Thu 03:45:06 PM 39.4689 -112.0530 65° Northeast 461 531 37,000  Level FlightAware ADS-B
Thu 03:45:17 PM 39.4793 -112.0244 65° Northeast 461 531 37,000  Level FlightAware ADS-B
Thu 03:45:36 PM 39.4963 -111.9780 65° Northeast 461 531 37,000  Level FlightAware ADS-B
Thu 03:45:51 PM 39.5100 -111.9399 65° Northeast 462 532 37,000  Level FlightAware ADS-B
Thu 03:46:17 PM 39.5336 -111.8750 65° Northeast 461 531 37,000  Level FlightAware ADS-B
Thu 03:46:21 PM 39.5372 -111.8648 65° Northeast 461 531 37,000  Level FlightAware ADS-B
Thu 03:46:48 PM 39.5615 -111.7980 65° Northeast 461 531 37,000  Level FlightAware ADS-B
Thu 03:46:56 PM 39.5664 -111.7839 66° East 461 531 37,000  Level FlightAware ADS-B
Thu 03:47:18 PM 39.5889 -111.7220 65° Northeast 461 531 37,000  Level FlightAware ADS-B
Thu 03:47:49 PM 39.6168 -111.6440 65° Northeast 461 531 37,000  Level FlightAware ADS-B
Thu 03:48:00 PM 39.6229 -111.6275 64° Northeast 461 531 37,000  Level FlightAware ADS-B
Thu 03:48:19 PM 39.6440 -111.5690 65° Northeast 461 531 37,000  Level FlightAware ADS-B
Thu 03:48:49 PM 39.6711 -111.4930 65° Northeast 461 531 37,000  Level FlightAware ADS-B
Thu 03:49:20 PM 39.6982 -111.4170 65° Northeast 460 529 37,000  Level FlightAware ADS-B
Thu 03:49:27 PM 39.7041 -111.4009 65° Northeast 461 531 37,000  Level FlightAware ADS-B
Thu 03:49:50 PM 39.7252 -111.3420 65° Northeast 459 528 37,000  Level FlightAware ADS-B
Thu 03:49:59 PM 39.7297 -111.3291 66° East 460 529 37,000  Level FlightAware ADS-B
Thu 03:50:20 PM 39.7519 -111.2670 65° Northeast 459 528 37,000  Level FlightAware ADS-B
Thu 03:50:50 PM 39.7787 -111.1910 65° Northeast 458 527 37,000  Level FlightAware ADS-B
Thu 03:51:18 PM 39.8031 -111.1220 65° Northeast 456 525 37,000  Level FlightAware ADS-B
Thu 03:51:36 PM 39.8186 -111.0786 65° Northeast 456 525 37,000  Level FlightAware ADS-B
Thu 03:51:48 PM 39.8295 -111.0470 66° East 456 525 37,000  Level FlightAware ADS-B
Thu 03:52:18 PM 39.8558 -110.9730 65° Northeast 456 525 37,000  Level FlightAware ADS-B
Thu 03:52:49 PM 39.8825 -110.8970 65° Northeast 455 524 37,000  Level FlightAware ADS-B
Thu 03:53:25 PM 39.9138 -110.8070 66° East 455 524 37,000  Level FlightAware ADS-B
Thu 03:53:55 PM 39.9407 -110.7310 65° Northeast 455 524 37,000  Level FlightAware ADS-B
Thu 03:54:26 PM 39.9650 -110.6610 66° East 454 522 37,000  Level FlightAware ADS-B
Thu 03:55:36 PM 40.0270 -110.4820 66° East 455 524 37,000  Level FlightAware ADS-B
Thu 03:56:03 PM 40.0480 -110.4200 66° East 454 522 37,000  Level FlightAware ADS-B
Thu 03:56:52 PM 40.0920 -110.2940 65° Northeast 454 522 37,000  Level FlightAware ADS-B
Thu 03:57:19 PM 40.1120 -110.2340 66° East 453 521 37,000  Level FlightAware ADS-B
Thu 03:58:14 PM 40.1608 -110.0864 67° East 453 521 37,000  Level FlightAware ADS-B
Thu 03:58:44 PM 40.1830 -110.0116 69° East 453 521 37,000  Level FlightAware ADS-B
Thu 03:59:29 PM 40.2170 -109.8960 69° East 453 521 37,000  Level FlightAware ADS-B
Thu 04:00:06 PM 40.2410 -109.8130 69° East 453 521 37,000  Level FlightAware ADS-B
Thu 04:00:32 PM 40.2610 -109.7440 69° East 453 521 37,000  Level FlightAware ADS-B
Thu 04:01:17 PM 40.2900 -109.6429 69° East 453 521 37,000  Level FlightAware ADS-B
Thu 04:02:21 PM 40.3439 -109.4552 69° East 454 522 37,000  Level FlightAware ADS-B
Thu 04:02:51 PM 40.3665 -109.3765 69° East 455 524 37,000  Level FlightAware ADS-B
Thu 04:03:22 PM 40.3841 -109.3147 69° East 455 524 37,000  Level FlightAware ADS-B
Thu 04:03:52 PM 40.4112 -109.2194 69° East 455 524 37,000  Level FlightAware ADS-B
Thu 04:04:26 PM 40.4362 -109.1314 70° East 454 522 37,000  Level FlightAware ADS-B
Thu 04:05:06 PM 40.4654 -109.0278 70° East 454 522 37,000  Level FlightAware ADS-B
Thu 04:05:38 PM 40.4884 -108.9462 70° East 455 524 37,000  Level FlightAware ADS-B
Thu 04:06:12 PM 40.5126 -108.8599 70° East 455 524 37,000  Level FlightAware ADS-B
Thu 04:06:52 PM 40.5414 -108.7567 70° East 456 525 37,000  Level FlightAware ADS-B
Thu 04:07:32 PM 40.5693 -108.6565 70° East 456 525 37,000  Level FlightAware ADS-B
Thu 04:08:02 PM 40.5922 -108.5736 70° East 457 526 37,000  Level FlightAware ADS-B
Thu 04:08:33 PM 40.6136 -108.4964 70° East 456 525 37,000  Level FlightAware ADS-B
Thu 04:09:14 PM 40.6432 -108.3889 70° East 456 525 37,000  Level FlightAware ADS-B
Thu 04:09:44 PM 40.6654 -108.3080 70° East 457 526 37,000  Level FlightAware ADS-B
Thu 04:11:04 PM 40.7230 -108.0980 70° East 458 527 37,000  Level FlightAware ADS-B
Thu 04:11:45 PM 40.7520 -107.9920 70° East 459 528 37,000  Level FlightAware ADS-B
Thu 04:12:13 PM 40.7710 -107.9180 71° East 459 528 37,000  Level FlightAware ADS-B
Thu 04:12:26 PM 40.7764 -107.8994 69° East 460 529 37,000  Level FlightAware ADS-B
Thu 04:13:06 PM 40.8090 -107.7760 71° East 460 529 37,000  Level FlightAware ADS-B
Thu 04:13:28 PM 40.8246 -107.7197 70° East 461 531 37,000  Level FlightAware ADS-B
Thu 04:13:58 PM 40.8456 -107.6414 71° East 461 531 37,000  Level FlightAware ADS-B
Thu 04:14:30 PM 40.8690 -107.5540 70° East 461 531 37,000  Level FlightAware ADS-B
Thu 04:15:12 PM 40.8739 -107.5347 71° East 463 533 37,000  Level FlightAware ADS-B
Thu 04:16:33 PM 40.9470 -107.2680 70° East 462 532 37,000  Level FlightAware ADS-B
Thu 04:16:51 PM 40.9670 -107.1810 73° East 463 533 37,000  Level FlightAware ADS-B
Thu 04:17:48 PM 41.0067 -107.0292 71° East 464 534 37,000  Level FlightAware ADS-B
Thu 04:18:37 PM 41.0411 -106.8966 71° East 465 535 37,000  Level FlightAware ADS-B
Thu 04:19:23 PM 41.0730 -106.7740 71° East 466 536 37,000  Level FlightAware ADS-B
Thu 04:19:56 PM 41.0970 -106.6810 71° East 467 537 37,000  Level FlightAware ADS-B
Thu 04:20:11 PM 41.1067 -106.6415 72° East 468 539 37,000  Level FlightAware ADS-B
Thu 04:20:45 PM 41.1292 -106.5537 71° East 469 540 37,000  Level FlightAware ADS-B
Thu 04:21:32 PM 41.1630 -106.4200 71° East 468 539 37,000  Level FlightAware ADS-B
Thu 04:21:43 PM 41.1634 -106.4188 64° Northeast 468 539 37,000  Level FlightAware ADS-B
Thu 04:22:50 PM 41.2170 -106.2080 71° East 468 539 37,000  Level FlightAware ADS-B
Thu 04:23:45 PM 41.2530 -106.0630 72° East 466 536 37,000  Level FlightAware ADS-B
Thu 04:24:23 PM 41.2790 -105.9600 71° East 465 535 37,000  Level FlightAware ADS-B
Thu 04:24:52 PM 41.2970 -105.8850 72° East 466 536 37,000  Level FlightAware ADS-B
Thu 04:26:00 PM 41.3450 -105.6930 72° East 466 536 37,000  Level FlightAware ADS-B
Thu 04:26:30 PM 41.3660 -105.6120 71° East 467 537 37,000  Level FlightAware ADS-B
Thu 04:27:10 PM 41.3930 -105.5060 71° East 467 537 37,000  Level FlightAware ADS-B
Thu 04:27:38 PM 41.4130 -105.4290 71° East 468 539 37,000  Level FlightAware ADS-B
Thu 04:28:16 PM 41.4390 -105.3300 71° East 468 539 37,000  Level FlightAware ADS-B
Thu 04:28:58 PM 41.4700 -105.2100 71° East 468 539 37,000  Level FlightAware ADS-B
Thu 04:29:28 PM 41.4900 -105.1310 71° East 468 539 37,000  Level FlightAware ADS-B
Thu 04:30:31 PM 41.5340 -104.9560 71° East 468 539 37,000  Level FlightAware ADS-B
Thu 04:30:59 PM 41.5530 -104.8800 72° East 467 537 37,000  Level FlightAware ADS-B
Thu 04:31:55 PM 41.5920 -104.7260 71° East 467 537 37,000  Level FlightAware ADS-B
Thu 04:32:25 PM 41.6110 -104.6460 72° East 465 535 37,000  Level FlightAware ADS-B
Thu 04:33:24 PM 41.6520 -104.4840 71° East 465 535 37,000  Level FlightAware ADS-B
Thu 04:33:50 PM 41.6680 -104.4200 71° East 465 535 37,000  Level FlightAware ADS-B
Thu 04:34:39 PM 41.7010 -104.2830 72° East 465 535 37,000  Level FlightAware ADS-B
Thu 04:35:11 PM 41.7230 -104.1920 72° East 464 534 37,000  Level FlightAware ADS-B
Thu 04:35:44 PM 41.7450 -104.1030 72° East 464 534 37,000  Level FlightAware ADS-B
Thu 04:36:21 PM 41.7700 -104.0020 72° East 464 534 37,000  Level FlightAware ADS-B
Thu 04:36:51 PM 41.7860 -103.9330 73° East 464 534 37,000  Level FlightAware ADS-B
Thu 04:37:30 PM 41.8150 -103.8140 72° East 465 535 37,000  Level FlightAware ADS-B
Thu 04:38:05 PM 41.8380 -103.7160 72° East 465 535 37,000  Level FlightAware ADS-B
Thu 04:38:32 PM 41.8560 -103.6430 72° East 466 536 37,000  Level FlightAware ADS-B
Thu 04:39:27 PM 41.8910 -103.4920 73° East 466 536 37,000  Level FlightAware ADS-B
Thu 04:40:02 PM 41.9070 -103.3950 77° East 467 537 37,000  Level FlightAware ADS-B
Thu 04:40:36 PM 41.9190 -103.3080 79° East 468 539 37,000  Level FlightAware ADS-B
Thu 04:41:15 PM 41.9360 -103.1850 79° East 469 540 37,000  Level FlightAware ADS-B
Thu 04:41:33 PM 41.9430 -103.1360 79° East 469 540 37,000  Level FlightAware ADS-B
Thu 04:42:31 PM 41.9660 -102.9700 79° East 469 540 37,000  Level FlightAware ADS-B
Thu 04:43:32 PM 41.9870 -102.8220 79° East 469 540 37,000  Level FlightAware ADS-B
Thu 04:44:20 PM 42.0040 -102.7050 79° East 469 540 37,000  Level FlightAware ADS-B
Thu 04:44:54 PM 42.0160 -102.6220 79° East 469 540 37,000  Level FlightAware ADS-B
Thu 04:45:31 PM 42.0290 -102.5320 79° East 469 540 37,000  Level FlightAware ADS-B
Thu 04:45:56 PM 42.0380 -102.4710 79° East 469 540 37,000  Level FlightAware ADS-B
Thu 04:47:08 PM 42.0710 -102.1990 81° East 466 536 37,000  Level FlightAware ADS-B
Thu 04:47:32 PM 42.0790 -102.1410 79° East 466 536 37,000  Level FlightAware ADS-B
Thu 04:48:09 PM 42.0920 -102.0510 79° East 466 536 37,000  Level FlightAware ADS-B
Thu 04:48:47 PM 42.1050 -101.9590 79° East 466 536 37,000  Level FlightAware ADS-B
Thu 04:49:11 PM 42.1140 -101.9010 78° East 466 536 37,000  Level FlightAware ADS-B
Thu 04:49:47 PM 42.1260 -101.8130 80° East 466 536 37,000  Level FlightAware ADS-B
Thu 04:50:47 PM 42.1470 -101.6680 79° East 466 536 37,000  Level FlightAware ADS-B
Thu 04:51:23 PM 42.1600 -101.5800 79° East 466 536 37,000  Level FlightAware ADS-B
Thu 04:51:47 PM 42.1680 -101.5220 79° East 466 536 37,000  Level FlightAware ADS-B
Thu 04:52:25 PM 42.1810 -101.4300 79° East 466 536 37,000  Level FlightAware ADS-B
Thu 04:53:01 PM 42.1940 -101.3430 79° East 466 536 37,000  Level FlightAware ADS-B
Thu 04:53:37 PM 42.2070 -101.2550 79° East 466 536 37,000  Level FlightAware ADS-B
Thu 04:54:14 PM 42.2200 -101.1650 79° East 466 536 37,000  Level FlightAware ADS-B
Thu 04:54:50 PM 42.2320 -101.0780 79° East 466 536 37,000  Level FlightAware ADS-B
Thu 04:55:26 PM 42.2450 -100.9900 79° East 466 536 37,000  Level FlightAware ADS-B
Thu 04:56:14 PM 42.2620 -100.8740 79° East 466 536 37,000  Level FlightAware ADS-B
Thu 05:01:51 PM 42.3630 -99.6190 83° East 484 557 37,000  Level FlightAware ADS-B
Thu 05:02:31 PM 42.3700 -99.5120 85° East 484 557 37,000  Level FlightAware ADS-B
Thu 05:03:41 PM 42.3840 -99.2850 85° East 485 558 37,000  Level FlightAware ADS-B
Thu 05:04:42 PM 42.3960 -99.1010 85° East 486 559 37,000  Level FlightAware ADS-B
Thu 05:05:23 PM 42.4030 -98.9790 86° East 486 559 37,000  Level FlightAware ADS-B
Thu 05:05:51 PM 42.4080 -98.8920 86° East 486 559 37,000  Level FlightAware ADS-B
Thu 05:06:06 PM 42.4110 -98.8500 84° East 486 559 37,000  Level FlightAware ADS-B
Thu 05:06:54 PM 42.4200 -98.7020 85° East 489 563 37,000  Level FlightAware ADS-B
Thu 05:07:51 PM 42.4290 -98.5280 86° East 490 564 37,000  Level FlightAware ADS-B
Thu 05:08:23 PM 42.4340 -98.4330 86° East 490 564 37,000  Level FlightAware ADS-B
Thu 05:08:51 PM 42.4380 -98.3450 86° East 491 565 37,000  Level FlightAware ADS-B
Thu 05:09:52 PM 42.4480 -98.1580 86° East 491 565 37,000  Level FlightAware ADS-B
Thu 05:10:43 PM 42.4560 -98.0000 86° East 491 565 37,000  Level FlightAware ADS-B
Thu 05:11:50 PM 42.4650 -97.7950 87° East 490 564 37,000  Level FlightAware ADS-B
Thu 05:12:25 PM 42.4700 -97.6890 86° East 489 563 37,000  Level FlightAware ADS-B
Thu 05:13:24 PM 42.4780 -97.5080 87° East 488 562 37,000  Level FlightAware ADS-B
Thu 05:14:13 PM 42.4850 -97.3630 86° East 485 558 37,000  Level FlightAware ADS-B
Thu 05:14:52 PM 42.4900 -97.2450 87° East 484 557 37,000  Level FlightAware ADS-B
Thu 05:15:23 PM 42.4930 -97.1520 87° East 484 557 37,000  Level FlightAware ADS-B
Thu 05:16:23 PM 42.5010 -96.9670 87° East 483 556 37,000  Level FlightAware ADS-B
Thu 05:16:58 PM 42.5050 -96.8630 87° East 483 556 37,000  Level FlightAware ADS-B
Thu 05:18:00 PM 42.5120 -96.6750 87° East 482 555 37,000  Level FlightAware ADS-B
Thu 05:18:44 PM 42.5160 -96.5440 88° East 482 555 37,000  Level FlightAware ADS-B
Thu 05:19:32 PM 42.5220 -96.3990 87° East 482 555 37,000  Level FlightAware ADS-B
Thu 05:20:19 PM 42.5260 -96.2580 88° East 483 556 37,000  Level FlightAware ADS-B
Thu 05:20:51 PM 42.5290 -96.1630 88° East 483 556 37,000  Level FlightAware ADS-B
Thu 05:21:37 PM 42.5340 -96.0220 87° East 484 557 37,000  Level FlightAware ADS-B
Thu 05:22:09 PM 42.5370 -95.9300 87° East 485 558 37,000  Level FlightAware ADS-B
Thu 05:22:39 PM 42.5390 -95.8330 88° East 487 560 37,000  Level FlightAware ADS-B
Thu 05:23:17 PM 42.5430 -95.7170 87° East 489 563 37,000  Level FlightAware ADS-B
Thu 05:24:06 PM 42.5470 -95.5660 88° East 493 567 37,000  Level FlightAware ADS-B
Thu 05:24:41 PM 42.5500 -95.4570 88° East 497 572 37,000  Level FlightAware ADS-B
Thu 05:25:12 PM 42.5523 -95.3611 88° East 503 579 37,000  Level FlightAware ADS-B (LPVM)
Thu 05:25:50 PM 42.5552 -95.2415 88° East 506 582 37,000  Level FlightAware ADS-B (LPVM)
Thu 05:26:32 PM 42.5583 -95.1094 88° East 511 588 37,000  Level FlightAware ADS-B (LPVM)
Thu 05:27:12 PM 42.5608 -94.9976 88° East 513 590 37,000  Level FlightAware ADS-B (LPVM)
Thu 05:28:19 PM 42.5656 -94.7626 88° East 513 590 37,000  Level FlightAware ADS-B (LPVM)
Thu 05:29:01 PM 42.5680 -94.6350 88° East 515 593 37,000  Level FlightAware ADS-B
Thu 05:29:24 PM 42.5696 -94.5540 88° East 517 595 37,000  Level FlightAware ADS-B (LPVM)
Thu 05:30:57 PM 42.5750 -94.2600 88° East 519 597 37,000  Level FlightAware ADS-B
Thu 05:31:31 PM 42.5760 -94.1490 89° East 518 596 37,000  Level FlightAware ADS-B
Thu 05:32:13 PM 42.5778 -94.0300 89° East 516 594 37,000  Level FlightAware ADS-B (LPVM)
Thu 05:32:45 PM 42.5790 -93.9090 89° East 516 594 37,000  Level FlightAware ADS-B
Thu 05:33:37 PM 42.5810 -93.7410 89° East 512 589 37,000  Level FlightAware ADS-B
Thu 05:34:53 PM 42.5860 -93.5010 88° East 502 578 37,000  Level FlightAware ADS-B
Thu 05:35:26 PM 42.5890 -93.4000 88° East 500 575 37,000  Level FlightAware ADS-B
Thu 05:36:00 PM 42.5920 -93.2920 88° East 498 573 37,000  Level FlightAware ADS-B
Thu 05:36:54 PM 42.5960 -93.1190 88° East 496 571 37,000  Level FlightAware ADS-B
Thu 05:37:49 PM 42.6000 -92.9560 88° East 497 572 37,000  Level FlightAware ADS-B
Thu 05:38:37 PM 42.6040 -92.8060 88° East 500 575 37,000  Level FlightAware ADS-B
Thu 05:39:27 PM 42.6070 -92.6520 88° East 501 577 37,000  Level FlightAware ADS-B
Thu 05:40:28 PM 42.6110 -92.4510 88° East 503 579 37,000  Level FlightAware ADS-B
Thu 05:40:53 PM 42.6120 -92.3760 89° East 503 579 37,000  Level FlightAware ADS-B
Thu 05:41:03 PM 42.6127 -92.3387 89° East 503 579 37,000  Level FlightAware ADS-B (LPVM)
Thu 05:41:58 PM 42.6160 -92.1690 88° East 505 581 37,000  Level FlightAware ADS-B
Thu 05:42:13 PM 42.6165 -92.1176 89° East 506 582 37,000  Level FlightAware ADS-B (LPVM)
Thu 05:43:15 PM 42.6186 -91.9787 89° East 505 581 37,000  Level FlightAware ADS-B (LPVM)
Thu 05:43:46 PM 42.6208 -91.8242 89° East 506 582 37,000  Level FlightAware ADS-B (LPVM)
Thu 05:44:32 PM 42.6221 -91.7273 89° East 507 583 37,000  Level FlightAware ADS-B (LPVM)
Thu 05:45:09 PM 42.6241 -91.5615 89° East 508 585 37,000  Level FlightAware ADS-B (LPVM)
Thu 05:45:46 PM 42.6250 -91.4450 89° East 508 585 37,000  Level FlightAware ADS-B
Thu 05:45:49 PM 42.6250 -91.4719 270° West 508 585 37,000  Level FlightAware ADS-B (LPVM)
Thu 05:46:40 PM 42.6270 -91.2740 89° East 509 586 37,000  Level FlightAware ADS-B
Thu 05:47:13 PM 42.6277 -91.1666 89° East 509 586 37,000  Level FlightAware ADS-B (LPVM)
Thu 05:48:10 PM 42.6287 -91.0246 89° East 508 585 37,000  Level FlightAware ADS-B (LPVM)
Thu 05:48:47 PM 42.6300 -90.8680 89° East 508 585 37,000  Level FlightAware ADS-B
Thu 05:49:05 PM 42.6299 -90.8110 90° East 508 585 37,000  Level FlightAware ADS-B (LPVM)
Thu 05:49:43 PM 42.6303 -90.6890 90° East 507 583 37,000  Level FlightAware ADS-B (LPVM)
Thu 05:50:34 PM 42.6310 -90.5300 90° East 507 583 37,000  Level FlightAware ADS-B
Thu 05:51:31 PM 42.6310 -90.3460 90° East 507 583 37,000  Level FlightAware ADS-B
Thu 05:52:28 PM 42.6310 -90.1680 90° East 507 583 37,000  Level FlightAware ADS-B
Thu 05:53:04 PM 42.6310 -90.0540 90° East 507 583 37,000  Level FlightAware ADS-B
Thu 05:54:00 PM 42.6300 -89.8730 90° East 507 583 37,000  Level FlightAware ADS-B
Thu 05:54:42 PM 42.6300 -89.7520 90° East 508 585 37,000  Level FlightAware ADS-B
Thu 05:55:21 PM 42.6290 -89.6210 91° East 509 586 37,000  Level FlightAware ADS-B
Thu 05:56:21 PM 42.6280 -89.4280 90° East 510 587 37,000  Level FlightAware ADS-B
Thu 05:57:08 PM 42.6270 -89.2790 90° East 511 588 37,000  Level FlightAware ADS-B
Thu 05:57:59 PM 42.6250 -89.1200 91° East 512 589 37,000  Level FlightAware ADS-B
Thu 05:58:34 PM 42.6240 -89.0100 91° East 511 588 37,000  Level FlightAware ADS-B
Thu 05:59:09 PM 42.6220 -88.8940 91° East 511 588 37,000  Level FlightAware ADS-B
Thu 05:59:50 PM 42.6210 -88.7600 91° East 511 588 37,000  Level FlightAware ADS-B
Thu 06:00:44 PM 42.6180 -88.5900 91° East 511 588 37,000  Level FlightAware ADS-B
Thu 06:01:21 PM 42.6170 -88.4720 91° East 512 589 37,000  Level FlightAware ADS-B
Thu 06:01:49 PM 42.6150 -88.3790 92° East 512 589 37,000  Level FlightAware ADS-B
Thu 06:02:21 PM 42.6130 -88.2770 91° East 512 589 37,000  Level FlightAware ADS-B
Thu 06:02:50 PM 42.6120 -88.1860 91° East 511 588 37,000  Level FlightAware ADS-B
Thu 06:03:26 PM 42.6090 -88.0680 92° East 511 588 37,000  Level FlightAware ADS-B
Thu 06:04:25 PM 42.6060 -87.8780 91° East 509 586 37,000  Level FlightAware ADS-B
Thu 06:05:30 PM 42.6010 -87.6730 92° East 509 586 37,000  Level FlightAware ADS-B
Thu 06:06:15 PM 42.5980 -87.5290 92° East 508 585 37,000  Level FlightAware ADS-B
Thu 06:07:08 PM 42.5940 -87.3670 92° East 508 585 37,000  Level FlightAware ADS-B
Thu 06:07:57 PM 42.5900 -87.2090 92° East 508 585 37,000  Level FlightAware ADS-B
Thu 06:08:32 PM 42.5860 -87.0940 93° East 508 585 37,000  Level FlightAware ADS-B
Thu 06:09:29 PM 42.5810 -86.9160 92° East 508 585 37,000  Level FlightAware ADS-B
Thu 06:10:12 PM 42.5770 -86.7770 92° East 508 585 37,000  Level FlightAware ADS-B
Thu 06:11:03 PM 42.5720 -86.6160 92° East 508 585 37,000  Level FlightAware ADS-B
Thu 06:11:56 PM 42.5660 -86.4480 93° East 508 585 37,000  Level FlightAware ADS-B
Thu 06:12:48 PM 42.5610 -86.2860 92° East 508 585 37,000  Level FlightAware ADS-B
Thu 06:13:20 PM 42.5570 -86.1870 93° East 507 583 37,000  Level FlightAware ADS-B
Thu 06:14:06 PM 42.5520 -86.0400 93° East 507 583 37,000  Level FlightAware ADS-B
Thu 06:14:38 PM 42.5480 -85.9370 93° East 507 583 37,000  Level FlightAware ADS-B
Thu 06:15:21 PM 42.5430 -85.8010 93° East 507 583 37,000  Level FlightAware ADS-B
Thu 06:15:51 PM 42.5390 -85.7050 93° East 507 583 37,000  Level FlightAware ADS-B
Thu 06:16:28 PM 42.5340 -85.5880 93° East 507 583 37,000  Level FlightAware ADS-B
Thu 06:17:17 PM 42.5280 -85.4300 93° East 507 583 37,000  Level FlightAware ADS-B
Thu 06:18:13 PM 42.5200 -85.2630 94° East 507 583 37,000  Level FlightAware ADS-B
Thu 06:19:13 PM 42.5120 -85.0640 93° East 507 583 37,000  Level FlightAware ADS-B
Thu 06:20:04 PM 42.5040 -84.9060 94° East 508 585 37,000  Level FlightAware ADS-B
Thu 06:20:43 PM 42.4980 -84.7860 94° East 508 585 37,000  Level FlightAware ADS-B
Thu 06:21:16 PM 42.4930 -84.6770 94° East 508 585 37,000  Level FlightAware ADS-B
Thu 06:21:48 PM 42.4880 -84.5700 94° East 508 585 37,000  Level FlightAware ADS-B
Thu 06:22:19 PM 42.4830 -84.4700 94° East 508 585 37,000  Level FlightAware ADS-B
Thu 06:23:19 PM 42.4730 -84.2780 94° East 509 586 37,000  Level FlightAware ADS-B
Thu 06:24:06 PM 42.4650 -84.1370 94° East 509 586 37,000  Level FlightAware ADS-B
Thu 06:24:59 PM 42.4560 -83.9640 94° East 509 586 37,000  Level FlightAware ADS-B
Thu 06:25:40 PM 42.4490 -83.8360 94° East 509 586 37,000  Level FlightAware ADS-B
Thu 06:26:19 PM 42.4420 -83.7140 94° East 509 586 37,000  Level FlightAware ADS-B
Thu 06:27:24 PM 42.4290 -83.5030 95° East 509 586 37,000  Level FlightAware ADS-B
Thu 06:28:18 PM 42.4190 -83.3310 94° East 510 587 37,000  Level FlightAware ADS-B
Thu 06:29:13 PM 42.4090 -83.1700 95° East 510 587 37,000  Level FlightAware ADS-B
Thu 06:29:49 PM 42.4010 -83.0450 95° East 510 587 37,000  Level FlightAware ADS-B
Thu 06:30:32 PM 42.3920 -82.9050 95° East 510 587 37,000  Level FlightAware ADS-B
Thu 06:31:25 PM 42.3810 -82.7360 95° East 512 589 37,000  Level FlightAware ADS-B
Thu 06:32:14 PM 42.3740 -82.5830 93° East 512 589 37,000  Level FlightAware ADS-B
Thu 06:32:45 PM 42.3700 -82.4820 93° East 512 589 37,000  Level FlightAware ADS-B
Thu 06:33:38 PM 42.3640 -82.3150 93° East 512 589 37,000  Level FlightAware ADS-B
Thu 06:34:32 PM 42.3570 -82.1400 93° East 513 590 37,000  Level FlightAware ADS-B
Thu 06:35:30 PM 42.3490 -81.9590 93° East 513 590 37,000  Level FlightAware ADS-B
Thu 06:36:27 PM 42.3410 -81.7770 93° East 513 590 37,000  Level FlightAware ADS-B
Thu 06:37:15 PM 42.3330 -81.6230 94° East 515 593 37,000  Level FlightAware ADS-B
Thu 06:38:05 PM 42.3260 -81.4580 93° East 515 593 37,000  Level FlightAware ADS-B
Thu 06:39:04 PM 42.3160 -81.2710 94° East 516 594 37,000  Level FlightAware ADS-B
Thu 06:39:56 PM 42.3080 -81.1060 94° East 516 594 37,000  Level FlightAware ADS-B
Thu 06:40:35 PM 42.3020 -80.9810 94° East 517 595 37,000  Level FlightAware ADS-B
Thu 06:41:32 PM 42.2920 -80.7960 94° East 517 595 37,000  Level FlightAware ADS-B
Thu 06:42:17 PM 42.2840 -80.6520 94° East 517 595 37,000  Level FlightAware ADS-B
Thu 06:42:58 PM 42.2760 -80.5200 95° East 517 595 37,000  Level FlightAware ADS-B
Thu 06:43:28 PM 42.2710 -80.4220 94° East 517 595 37,000  Level FlightAware ADS-B
Thu 06:44:23 PM 42.2610 -80.2490 94° East 517 595 37,000  Level FlightAware ADS-B
Thu 06:45:19 PM 42.2500 -80.0660 95° East 516 594 37,000  Level FlightAware ADS-B
Thu 06:46:07 PM 42.2410 -79.9140 95° East 515 593 37,000  Level FlightAware ADS-B
Thu 06:46:56 PM 42.2310 -79.7550 95° East 514 592 37,000  Level FlightAware ADS-B
Thu 06:47:53 PM 42.2190 -79.5750 95° East 514 592 37,000  Level FlightAware ADS-B
Thu 06:48:54 PM 42.2060 -79.3820 95° East 514 592 37,000  Level FlightAware ADS-B
Thu 06:49:42 PM 42.1960 -79.2280 95° East 514 592 37,000  Level FlightAware ADS-B
Thu 06:50:29 PM 42.1780 -79.0840 100° East 513 590 37,000  Level FlightAware ADS-B
Thu 06:51:18 PM 42.1420 -78.9320 108° East 512 589 37,000  Level FlightAware ADS-B
Thu 06:52:01 PM 42.1090 -78.8030 109° East 512 589 37,000  Level FlightAware ADS-B
Thu 06:52:34 PM 42.0860 -78.7100 108° East 512 589 37,000  Level FlightAware ADS-B
Thu 06:53:23 PM 42.0490 -78.5660 109° East 513 590 37,000  Level FlightAware ADS-B
Thu 06:54:16 PM 42.0050 -78.3930 109° East 514 592 37,000  Level FlightAware ADS-B
Thu 06:54:40 PM 41.9870 -78.3250 110° East 514 592 37,000  Level FlightAware ADS-B
Thu 06:55:39 PM 41.9420 -78.1490 109° East 517 595 37,000  Level FlightAware ADS-B
Thu 06:56:35 PM 41.8980 -77.9800 109° East 518 596 37,000  Level FlightAware ADS-B
Thu 06:57:31 PM 41.8530 -77.8050 109° East 519 597 37,000  Level FlightAware ADS-B
Thu 06:58:19 PM 41.8140 -77.6600 110° East 518 596 37,000  Level FlightAware ADS-B
Thu 06:58:47 PM 41.7920 -77.5760 109° East 519 597 37,000  Level FlightAware ADS-B
Thu 06:59:51 PM 41.7400 -77.3810 110° East 519 597 37,000  Level FlightAware ADS-B
Thu 07:00:35 PM 41.7070 -77.2570 110° East 520 598 37,000  Level FlightAware ADS-B
Thu 07:01:21 PM 41.6690 -77.1150 110° East 520 598 37,000  Level FlightAware ADS-B
Thu 07:02:18 PM 41.6210 -76.9380 110° East 520 598 37,000  Level FlightAware ADS-B
Thu 07:03:14 PM 41.5750 -76.7680 110° East 522 601 37,000  Level FlightAware ADS-B
Thu 07:04:06 PM 41.5310 -76.6100 110° East 523 602 37,000  Level FlightAware ADS-B
Thu 07:04:58 PM 41.4880 -76.4550 110° East 523 602 37,000 -495 Level FlightAware ADS-B
Thu 07:05:55 PM 41.4410 -76.2860 110° East 525 604 36,100 -1,000 Descending FlightAware ADS-B
Thu 07:06:22 PM 41.4170 -76.1980 110° East 529 609 35,600 -1,390 Descending FlightAware ADS-B
Thu 07:07:17 PM 41.3700 -76.0320 111° Southeast 527 606 34,200 -1,826 Descending FlightAware ADS-B
Thu 07:07:54 PM 41.3390 -75.9200 110° East 522 601 32,800 -2,400 Descending FlightAware ADS-B
Thu 07:08:37 PM 41.3040 -75.7980 111° Southeast 518 596 31,000 -2,692 Descending FlightAware ADS-B
Thu 07:09:12 PM 41.2740 -75.6950 111° Southeast 515 593 29,300 -3,143 Descending FlightAware ADS-B
Thu 07:10:01 PM 41.2260 -75.5480 113° Southeast 509 586 26,600 -3,000 Descending FlightAware ADS-B
Thu 07:10:40 PM 41.1900 -75.4410 114° Southeast 494 568 24,900 -2,667 Descending FlightAware ADS-B
Thu 07:11:13 PM 41.1600 -75.3510 114° Southeast 478 550 23,400 -2,400 Descending FlightAware ADS-B
Thu 07:11:30 PM 41.1450 -75.3070 114° Southeast 475 547 22,900 -750 Descending FlightAware ADS-B
Thu 07:12:41 PM 41.0830 -75.1240 114° Southeast 457 526 22,300 -551 Descending FlightAware ADS-B
Thu 07:13:08 PM 41.0590 -75.0540 114° Southeast 453 521 22,000 -585 Descending FlightAware ADS-B
Thu 07:14:03 PM 41.0120 -74.9160 114° Southeast 458 527 21,500 -545 Descending FlightAware ADS-B
Thu 07:14:47 PM 40.9880 -74.7950 105° East 454 522 21,100 -500 Descending FlightAware ADS-B
Thu 07:15:39 PM 40.9720 -74.6530 98° East 448 516 20,700 -500 Descending FlightAware ADS-B
Thu 07:16:35 PM 40.9570 -74.5070 98° East 436 502 20,200 -531 Descending FlightAware ADS-B
Thu 07:17:32 PM 40.9400 -74.3600 99° East 384 442 19,700 -702 Descending FlightAware ADS-B
Thu 07:18:09 PM 40.9280 -74.2810 101° East 361 415 19,100 -724 Descending FlightAware ADS-B
Thu 07:18:30 PM 40.9110 -74.2470 123° Southeast 347 399 19,000 -146 Descending FlightAware ADS-B
Thu 07:18:50 PM 40.8830 -74.2180 142° Southeast 338 389 19,000 -125 Level FlightAware ADS-B
Thu 07:19:18 PM 40.8490 -74.1850 144° Southeast 335 386 18,900 -638 Descending FlightAware ADS-B
Thu 07:19:37 PM 40.8236 -74.1602 144° Southeast 336 387 18,500 -1,469 Descending FlightAware ADS-B
Thu 07:20:07 PM 40.7863 -74.1234 143° Southeast 333 383 17,700 -1,600 Descending FlightAware ADS-B
Thu 07:20:37 PM 40.7491 -74.0863 143° Southeast 330 380 16,900 -1,227 Descending FlightAware ADS-B
Thu 07:21:35 PM 40.6740 -74.0420 156° South 316 364 15,900 -1,256 Descending FlightAware ADS-B
Thu 07:22:03 PM 40.6360 -74.0250 161° South 310 357 15,100 -2,100 Descending FlightAware ADS-B
Thu 07:22:55 PM 40.5650 -73.9950 162° South 309 356 13,100 -1,636 Descending FlightAware ADS-B
Thu 07:23:20 PM 40.5330 -73.9680 147° Southeast 313 360 13,000 -81 Descending FlightAware ADS-B
Thu 07:24:09 PM 40.4760 -73.9100 142° Southeast 316 364 13,000 -400 Level FlightAware ADS-B
Thu 07:24:35 PM 40.4440 -73.8880 152° Southeast 300 345 12,500 -1,233 Descending FlightAware ADS-B
Thu 07:25:22 PM 40.3810 -73.8760 172° South 290 334 11,500 -1,350 Descending FlightAware ADS-B
Thu 07:25:55 PM 40.3380 -73.8670 171° South 292 336 10,700 -1,545 Descending FlightAware ADS-B
Thu 07:26:28 PM 40.2970 -73.8430 156° South 301 346 9,800 -1,585 Descending FlightAware ADS-B
Thu 07:26:48 PM 40.2710 -73.8260 153° Southeast 299 344 9,300 -1,368 Descending FlightAware ADS-B
Thu 07:27:25 PM 40.2370 -73.7800 134° Southeast 297 342 8,500 -1,200 Descending FlightAware ADS-B
Thu 07:27:38 PM 40.2350 -73.7620 98° East 292 336 8,300 -1,180 Descending FlightAware ADS-B
Thu 07:28:26 PM 40.2740 -73.7010 50° Northeast 267 307 7,300 -897 Descending FlightAware ADS-B
Thu 07:29:05 PM 40.3160 -73.6700 29° Northeast 272 313 7,000 -261 Descending FlightAware ADS-B
Thu 07:29:35 PM 40.3490 -73.6430 32° Northeast 269 310 7,000  Level FlightAware ADS-B
Thu 07:29:59 PM 40.3740 -73.6240 30° Northeast 268 308 7,000  Level FlightAware ADS-B
Thu 07:30:25 PM 40.4020 -73.6030 30° Northeast 275 316 7,000  Level FlightAware ADS-B
Thu 07:30:54 PM 40.4340 -73.5780 31° Northeast 274 315 7,000  Level FlightAware ADS-B
Thu 07:31:24 PM 40.4670 -73.5520 31° Northeast 274 315 7,000 -94 Level FlightAware ADS-B
Thu 07:31:58 PM 40.5020 -73.5250 30° Northeast 271 312 6,900 -656 Descending FlightAware ADS-B
Thu 07:32:28 PM 40.5370 -73.4990 29° Northeast 268 308 6,300 -1,320 Descending FlightAware ADS-B
Thu 07:32:48 PM 40.5590 -73.4860 24° Northeast 263 303 5,800 -1,375 Descending FlightAware ADS-B
Thu 07:33:16 PM 40.5920 -73.4770 12° North 259 298 5,200 -1,119 Descending FlightAware ADS-B
Thu 07:33:47 PM 40.6270 -73.4800 356° North 240 276 4,700 -873 Descending FlightAware ADS-B
Thu 07:34:11 PM 40.6520 -73.4920 340° North 218 251 4,400 -706 Descending FlightAware ADS-B
Thu 07:34:38 PM 40.6770 -73.5030 342° North 205 236 4,100 -923 Descending FlightAware ADS-B
Thu 07:35:03 PM 40.6980 -73.5130 340° North 203 234 3,600 -1,250 Descending FlightAware ADS-B
Thu 07:35:26 PM 40.7200 -73.5230 341° North 206 237 3,100 -1,091 Descending FlightAware ADS-B
Thu 07:35:47 PM 40.7380 -73.5310 341° North 206 237 2,800 -941 Descending FlightAware ADS-B
Thu 07:36:17 PM 40.7650 -73.5450 339° North 197 227 2,300 -750 Descending FlightAware ADS-B
Thu 07:36:51 PM 40.7800 -73.5770 302° West 179 206 2,000 -310 Descending FlightAware ADS-B
Thu 07:37:15 PM 40.7840 -73.6010 282° West 161 185 2,000  Level FlightAware ADS-B
Thu 07:37:43 PM 40.7860 -73.6290 275° West 163 188 2,000  Level FlightAware ADS-B
Thu 07:38:11 PM 40.7750 -73.6500 235° Southwest 170 196 2,000  Level FlightAware ADS-B
Thu 07:38:39 PM 40.7570 -73.6680 217° Southwest 173 199 2,000  Level FlightAware ADS-B
Thu 07:39:08 PM 40.7370 -73.6830 210° Southwest 165 190 2,000 -316 Level FlightAware ADS-B
Thu 07:39:36 PM 40.7190 -73.6970 211° Southwest 167 192 1,700 -808 Descending FlightAware ADS-B
Thu 07:40:00 PM 40.7030 -73.7090 210° Southwest 152 175 1,300 -900 Descending FlightAware ADS-B
Thu 07:40:16 PM 40.6940 -73.7170 214° Southwest 146 168 1,100 -667 Descending FlightAware ADS-B
Thu 07:40:36 PM 40.6830 -73.7250 209° Southwest 132 152 900 -625 Descending FlightAware ADS-B
Thu 07:41:04 PM 40.6680 -73.7370 211° Southwest 130 150 600 -764 Descending FlightAware ADS-B
Thu 07:41:31 PM 40.6540 -73.7480 211° Southwest 133 153 200 -889 Descending FlightAware ADS-B
Thu 07:41:56 PM 40.6420 -73.7580 212° Southwest 125 144 -480 Descending FlightAware ADS-B

Login

Don't have an account? Register now (free) for customized features, flight alerts, and more!